createdAt,value
2022-09-25T00:04:05.055Z,1.20
2022-09-25T00:09:10.947Z,1.50
2022-09-25T00:14:14.541Z,1.65
2022-09-25T00:19:40.563Z,0.85
2022-09-25T00:24:46.334Z,1.20
2022-09-25T00:29:49.984Z,1.25
2022-09-25T00:34:53.729Z,1.10
2022-09-25T00:39:58.758Z,1.60
2022-09-25T00:45:03.286Z,1.42
2022-09-25T00:50:16.321Z,1.65
2022-09-25T00:55:23.952Z,1.90
2022-09-25T01:00:27.582Z,1.58
2022-09-25T01:05:34.269Z,1.60
2022-09-25T01:10:39.859Z,1.83
2022-09-25T01:15:49.818Z,1.48
2022-09-25T01:21:15.319Z,1.77
2022-09-25T01:26:45.068Z,2.35
2022-09-25T01:32:03.080Z,2.20
2022-09-25T01:37:16.227Z,2.38
2022-09-25T01:42:24.107Z,1.65
2022-09-25T01:47:32.069Z,2.60
2022-09-25T01:52:41.515Z,2.45
2022-09-25T01:57:51.675Z,2.67
2022-09-25T02:03:02.099Z,2.10
2022-09-25T02:08:09.737Z,2.05
2022-09-25T02:13:17.238Z,1.98
2022-09-25T02:18:41.080Z,2.58
2022-09-25T02:23:53.385Z,2.50
2022-09-25T02:28:58.181Z,2.30
2022-09-25T02:34:03.810Z,2.17
2022-09-25T02:39:09.317Z,2.10
2022-09-25T02:44:20.324Z,2.22
2022-09-25T02:49:30.783Z,2.45
2022-09-25T02:54:41.622Z,2.58
2022-09-25T02:59:52.057Z,2.00
2022-09-25T03:04:59.214Z,2.30
2022-09-25T03:15:14.221Z,2.92
2022-09-25T03:20:19.369Z,2.88
2022-09-25T03:25:23.030Z,2.83
2022-09-25T03:30:26.832Z,2.60
2022-09-25T03:35:31.985Z,3.42
2022-09-25T03:40:35.965Z,2.60
2022-09-25T03:45:39.788Z,3.05
2022-09-25T03:50:46.242Z,3.03
2022-09-25T03:55:49.890Z,2.97
2022-09-25T04:00:57.376Z,2.92
2022-09-25T04:06:04.935Z,2.65
2022-09-25T04:11:09.564Z,3.15
2022-09-25T04:16:14.702Z,2.42
2022-09-25T04:21:19.984Z,2.67
2022-09-25T04:26:23.866Z,2.67
2022-09-25T04:31:27.512Z,2.88
2022-09-25T04:36:32.597Z,3.00
2022-09-25T04:41:36.211Z,2.47
2022-09-25T04:46:39.850Z,3.00
2022-09-25T04:51:44.866Z,2.67
2022-09-25T04:56:48.470Z,2.60
2022-09-25T05:01:52.266Z,3.20
2022-09-25T05:06:57.399Z,3.15
2022-09-25T05:12:01.329Z,2.97
2022-09-25T05:17:06.931Z,3.20
2022-09-25T05:22:12.101Z,3.00
2022-09-25T05:27:15.712Z,3.22
2022-09-25T05:32:19.444Z,2.85
2022-09-25T05:37:24.522Z,2.90
2022-09-25T05:42:31.012Z,2.88
2022-09-25T05:47:34.654Z,2.88
2022-09-25T05:52:39.718Z,2.90
2022-09-25T05:57:43.425Z,2.55
2022-09-25T06:02:47.152Z,2.50
2022-09-25T06:07:55.846Z,2.63
2022-09-25T06:13:00.382Z,2.42
2022-09-25T06:18:04.128Z,2.50
2022-09-25T06:23:09.142Z,2.72
2022-09-25T06:28:13.341Z,2.15
2022-09-25T06:33:17.072Z,2.55
2022-09-25T06:38:22.101Z,2.25
2022-09-25T06:43:25.926Z,2.83
2022-09-25T06:48:29.920Z,2.03
2022-09-25T06:53:34.962Z,2.42
2022-09-25T06:58:38.908Z,2.65
2022-09-25T07:03:45.656Z,2.22
2022-09-25T07:08:52.116Z,2.55
2022-09-25T07:13:55.997Z,2.60
2022-09-25T07:19:01.405Z,2.80
2022-09-25T07:24:07.656Z,2.40
2022-09-25T07:29:12.669Z,2.20
2022-09-25T07:34:16.449Z,2.15
2022-09-25T07:39:21.471Z,2.38
2022-09-25T07:44:31.633Z,2.25
2022-09-25T07:49:40.219Z,2.65
2022-09-25T07:54:45.243Z,2.00
2022-09-25T07:59:48.954Z,2.00
2022-09-25T08:04:53.620Z,1.95
2022-09-25T08:09:58.795Z,2.00
2022-09-25T08:15:02.486Z,1.67
2022-09-25T08:20:07.210Z,1.55
2022-09-25T08:25:13.054Z,1.60
2022-09-25T08:30:17.595Z,1.67
2022-09-25T08:35:21.938Z,1.60
2022-09-25T08:40:31.445Z,1.65
2022-09-25T08:45:56.179Z,1.70
2022-09-25T08:51:03.580Z,1.27
2022-09-25T08:56:17.593Z,2.00
2022-09-25T09:01:24.585Z,1.50
2022-09-25T09:11:37.219Z,1.10
2022-09-25T09:16:46.270Z,0.98
2022-09-25T09:21:56.763Z,1.35
2022-09-25T09:27:18.180Z,1.23
2022-09-25T09:32:39.745Z,0.65
2022-09-25T09:37:57.038Z,0.80
2022-09-25T09:43:12.881Z,0.63
2022-09-25T09:48:21.138Z,0.50
2022-09-25T09:53:31.013Z,0.40
2022-09-25T09:58:44.346Z,0.47
2022-09-25T10:03:50.169Z,0.57
2022-09-25T10:08:53.922Z,0.47
2022-09-25T10:14:00.804Z,0.55
2022-09-25T10:24:11.262Z,0.52
2022-09-25T10:29:28.856Z,0.40
2022-09-25T10:34:33.075Z,0.38
2022-09-25T10:39:46.628Z,0.30
2022-09-25T10:44:57.166Z,0.40
2022-09-25T10:50:13.477Z,0.40
2022-09-25T10:55:25.388Z,0.38
2022-09-25T11:00:30.899Z,0.50
2022-09-25T11:05:37.091Z,0.20
2022-09-25T11:10:51.056Z,0.77
2022-09-25T11:16:00.152Z,0.75
2022-09-25T11:21:05.518Z,0.30
2022-09-25T11:26:14.002Z,0.30
2022-09-25T11:31:26.608Z,0.52
2022-09-25T11:36:34.431Z,0.50
2022-09-25T11:41:43.575Z,0.20
2022-09-25T11:46:54.786Z,0.32
2022-09-25T11:52:23.196Z,0.30
2022-09-25T11:57:38.304Z,0.30
2022-09-25T12:03:10.821Z,0.40
2022-09-25T12:08:26.857Z,0.57
2022-09-25T12:13:55.008Z,0.60
2022-09-25T12:19:15.753Z,0.32
2022-09-25T12:24:34.746Z,0.40
2022-09-25T12:30:06.921Z,0.30
2022-09-25T12:35:26.914Z,0.30
2022-09-25T12:40:34.133Z,0.80
2022-09-25T12:45:41.184Z,0.25
2022-09-25T12:50:52.473Z,0.30
2022-09-25T12:56:01.233Z,0.10
2022-09-25T13:01:11.373Z,0.20
2022-09-25T13:06:23.409Z,0.30
2022-09-25T13:11:39.180Z,0.32
2022-09-25T13:16:46.992Z,0.30
2022-09-25T13:21:52.835Z,0.30
2022-09-25T13:26:58.025Z,0.40
2022-09-25T13:32:07.478Z,0.30
2022-09-25T13:37:14.883Z,0.25
2022-09-25T13:42:25.647Z,0.25
2022-09-25T13:47:54.839Z,0.60
2022-09-25T13:53:49.812Z,0.68
2022-09-25T13:59:07.852Z,0.30
2022-09-25T14:04:17.538Z,0.25
2022-09-25T14:09:25.495Z,0.30
2022-09-25T14:14:34.533Z,0.30
2022-09-25T14:19:43.645Z,0.45
2022-09-25T14:24:50.089Z,0.43
2022-09-25T14:29:54.004Z,0.35
2022-09-25T14:35:21.888Z,0.40
2022-09-25T14:40:34.428Z,0.20
2022-09-25T14:45:58.103Z,0.50
2022-09-25T14:51:07.086Z,0.30
2022-09-25T14:56:14.711Z,0.40
2022-09-25T15:01:27.522Z,0.47
2022-09-25T15:06:33.072Z,0.35
2022-09-25T15:11:45.177Z,0.30
2022-09-25T15:17:07.349Z,0.50
2022-09-25T15:22:12.634Z,0.60
2022-09-25T15:27:19.384Z,0.68
2022-09-25T15:32:25.926Z,0.50
2022-09-25T15:37:30.947Z,1.15
2022-09-25T15:42:35.983Z,0.73
2022-09-25T15:47:51.810Z,0.88
2022-09-25T15:52:57.995Z,0.40
2022-09-25T15:58:15.995Z,0.33
2022-09-25T16:03:40.483Z,0.45
2022-09-25T16:08:44.416Z,0.30
2022-09-25T16:13:51.963Z,0.40
2022-09-25T16:18:57.190Z,0.52
2022-09-25T16:24:03.619Z,0.90
2022-09-25T16:29:20.215Z,0.40
2022-09-25T16:34:28.286Z,0.55
2022-09-25T16:39:36.758Z,0.40
2022-09-25T16:44:47.078Z,0.40
2022-09-25T16:49:50.953Z,0.32
2022-09-25T16:54:57.030Z,0.40
2022-09-25T17:00:03.076Z,0.30
2022-09-25T17:05:09.308Z,0.95
2022-09-25T17:10:16.061Z,1.00
2022-09-25T17:15:24.933Z,0.50
2022-09-25T17:20:30.961Z,0.57
2022-09-25T17:25:45.164Z,0.82
2022-09-25T17:30:50.241Z,1.10
2022-09-25T17:35:56.458Z,0.70
2022-09-25T17:41:05.351Z,1.23
2022-09-25T17:46:11.602Z,0.60
2022-09-25T17:51:18.525Z,0.68
2022-09-25T17:56:22.204Z,0.70
2022-09-25T18:01:29.349Z,0.95
2022-09-25T18:06:33.244Z,0.80
2022-09-25T18:11:42.543Z,0.70
2022-09-25T18:16:47.695Z,1.13
2022-09-25T18:22:08.893Z,0.80
2022-09-25T18:27:13.665Z,0.80
2022-09-25T18:32:18.877Z,0.90
2022-09-25T18:37:22.611Z,1.75
2022-09-25T18:42:26.412Z,1.20
2022-09-25T18:47:31.622Z,0.95
2022-09-25T18:52:35.360Z,0.90
2022-09-25T18:57:40.681Z,1.00
2022-09-25T19:02:46.248Z,1.20
2022-09-25T19:07:50.157Z,1.00
2022-09-25T19:12:53.917Z,1.33
2022-09-25T19:18:00.321Z,1.15
2022-09-25T19:23:06.076Z,1.52
2022-09-25T19:28:09.771Z,1.70
2022-09-25T19:33:14.923Z,2.45
2022-09-25T19:38:18.667Z,2.60
2022-09-25T19:43:22.426Z,2.80
2022-09-25T19:48:27.551Z,2.75
2022-09-25T19:53:31.219Z,2.17
2022-09-25T19:58:38.217Z,2.63
2022-09-25T20:08:46.847Z,2.70
2022-09-25T20:13:52.233Z,2.92
2022-09-25T20:19:00.272Z,2.67
2022-09-25T20:24:06.765Z,2.67
2022-09-25T20:29:13.087Z,2.45
2022-09-25T20:34:23.021Z,1.98
2022-09-25T20:39:27.514Z,2.25
2022-09-25T20:44:31.389Z,2.28
2022-09-25T20:49:36.466Z,1.98
2022-09-25T20:54:41.785Z,2.22
2022-09-25T20:59:45.445Z,2.20
2022-09-25T21:04:51.073Z,1.58
2022-09-25T21:09:55.280Z,2.30
2022-09-25T21:14:58.978Z,1.85
2022-09-25T21:20:04.361Z,1.80
2022-09-25T21:25:09.099Z,2.05
2022-09-25T21:30:13.499Z,1.77
2022-09-25T21:35:18.521Z,2.20
2022-09-25T21:40:22.323Z,1.70
2022-09-25T21:45:26.034Z,1.50
2022-09-25T21:50:31.008Z,1.83
2022-09-25T21:55:34.739Z,1.67
2022-09-25T22:00:38.444Z,1.67
2022-09-25T22:05:43.963Z,1.83
2022-09-25T22:10:56.094Z,1.92
2022-09-25T22:16:05.203Z,1.98
2022-09-25T22:21:10.973Z,1.95
2022-09-25T22:26:16.257Z,1.60
2022-09-25T22:31:21.646Z,1.70
2022-09-25T22:36:28.293Z,1.20
2022-09-25T22:41:32.224Z,1.40
2022-09-25T22:46:36.106Z,1.40
2022-09-25T22:51:41.352Z,1.23
2022-09-25T22:56:45.603Z,1.30
2022-09-25T23:02:08.150Z,1.27
2022-09-25T23:07:13.211Z,1.30
2022-09-25T23:12:16.851Z,1.45
2022-09-25T23:17:20.535Z,1.60
2022-09-25T23:22:25.643Z,1.73
2022-09-25T23:27:29.304Z,1.73
2022-09-25T23:32:33.190Z,1.98
2022-09-25T23:37:40.335Z,1.75
2022-09-25T23:42:44.159Z,1.77
2022-09-25T23:47:48.015Z,1.80
2022-09-25T23:52:53.057Z,1.77
2022-09-25T23:57:56.697Z,1.80
